Metar - Info de Aeroporto     EFOU Oulu Airport
Temperatura
30°F Temperatura
28°F Ptº Orvalho
93% Humidade



Vento
5 MPH
8 KM/H
2 M/S
4 NÓS



190°
S
Condições Atuais

Luz Aguaceiros Neve Luz Aguaceiros Neve
Pressão 1037.91 (hPa) - 30.65 (inHg)
Visibilidade 6.2 (milha) - 10 (km)
Aeroporto
Código-Aeropoto EFOU

Localização: Oulu Airport
Distância: 83 (mi)

Metar:
EFOU 011350Z AUTO 19004KT 9999 -SHSN OVC003 M01/M02 Q1038

Hora: 01-12-2022 15:50 EET